Terminal Aerodrome Forecast
Issued by NWS

Home | Current Version | Previous Version | Text Only | Print | Product List | Glossary On
Versions: 1 2 3 4 5 6 7 8 9 10 11 12 13 14 15 16 17 18 19 20 21 22 23 24 25 26 27 28 29 30 31 32
000
FTUS43 KMKX 192338
TAFENW
TAF
KENW 192338Z 2000/2024 11004KT P6SM FEW250
     FM201000 13004KT 5SM BR SCT150
     FM201200 14006KT 1 1/2SM BR SCT080
     FM202000 15012G20KT P6SM OVC035=

USA.gov is the U.S. government's official web portal to all federal, state and local government web resources and services.